sensor_id;sensor_type;location;lat;lon;timestamp;P1;durP1;ratioP1;P2;durP2;ratioP2
41327;SDS011;27075;47.636;-2.058;2022-11-20T00:02:12;5.32;;;4.20;;
41327;SDS011;27075;47.636;-2.058;2022-11-20T00:04:38;4.65;;;4.25;;
41327;SDS011;27075;47.636;-2.058;2022-11-20T00:09:30;5.35;;;4.15;;
41327;SDS011;27075;47.636;-2.058;2022-11-20T00:11:56;6.72;;;3.95;;
41327;SDS011;27075;47.636;-2.058;2022-11-20T00:14:22;3.85;;;3.47;;
41327;SDS011;27075;47.636;-2.058;2022-11-20T00:16:48;3.88;;;3.58;;
41327;SDS011;27075;47.636;-2.058;2022-11-20T00:19:14;4.32;;;3.92;;
41327;SDS011;27075;47.636;-2.058;2022-11-20T00:21:40;4.60;;;4.10;;
41327;SDS011;27075;47.636;-2.058;2022-11-20T00:24:08;6.28;;;4.75;;
41327;SDS011;27075;47.636;-2.058;2022-11-20T00:26:35;5.15;;;3.90;;
41327;SDS011;27075;47.636;-2.058;2022-11-20T00:29:01;5.68;;;4.32;;
41327;SDS011;27075;47.636;-2.058;2022-11-20T00:33:53;8.40;;;4.80;;
41327;SDS011;27075;47.636;-2.058;2022-11-20T00:36:20;4.47;;;4.07;;
41327;SDS011;27075;47.636;-2.058;2022-11-20T00:38:50;4.45;;;4.03;;
41327;SDS011;27075;47.636;-2.058;2022-11-20T00:41:16;9.40;;;4.00;;
41327;SDS011;27075;47.636;-2.058;2022-11-20T00:43:42;8.10;;;4.47;;
41327;SDS011;27075;47.636;-2.058;2022-11-20T00:46:15;4.32;;;3.92;;
41327;SDS011;27075;47.636;-2.058;2022-11-20T00:48:42;4.32;;;3.92;;
41327;SDS011;27075;47.636;-2.058;2022-11-20T00:53:34;3.67;;;3.38;;
41327;SDS011;27075;47.636;-2.058;2022-11-20T00:56:01;6.20;;;3.90;;
41327;SDS011;27075;47.636;-2.058;2022-11-20T00:58:33;5.45;;;4.30;;
41327;SDS011;27075;47.636;-2.058;2022-11-20T01:03:32;5.20;;;4.47;;
41327;SDS011;27075;47.636;-2.058;2022-11-20T01:06:15;4.22;;;3.60;;
41327;SDS011;27075;47.636;-2.058;2022-11-20T01:08:41;5.40;;;3.83;;
41327;SDS011;27075;47.636;-2.058;2022-11-20T01:11:09;6.82;;;4.05;;
41327;SDS011;27075;47.636;-2.058;2022-11-20T01:13:35;4.40;;;4.00;;
41327;SDS011;27075;47.636;-2.058;2022-11-20T01:18:30;5.10;;;4.60;;
41327;SDS011;27075;47.636;-2.058;2022-11-20T01:21:00;4.45;;;3.75;;
41327;SDS011;27075;47.636;-2.058;2022-11-20T01:23:29;5.05;;;3.63;;
41327;SDS011;27075;47.636;-2.058;2022-11-20T01:25:55;4.45;;;4.07;;
41327;SDS011;27075;47.636;-2.058;2022-11-20T01:28:21;4.10;;;3.70;;
41327;SDS011;27075;47.636;-2.058;2022-11-20T01:30:47;5.60;;;4.10;;
41327;SDS011;27075;47.636;-2.058;2022-11-20T01:33:13;4.18;;;3.78;;
41327;SDS011;27075;47.636;-2.058;2022-11-20T01:35:39;4.20;;;3.78;;
41327;SDS011;27075;47.636;-2.058;2022-11-20T01:38:08;4.15;;;3.58;;
41327;SDS011;27075;47.636;-2.058;2022-11-20T01:40:34;4.15;;;3.75;;
41327;SDS011;27075;47.636;-2.058;2022-11-20T01:43:12;4.65;;;4.10;;
41327;SDS011;27075;47.636;-2.058;2022-11-20T01:48:36;4.03;;;3.70;;
41327;SDS011;27075;47.636;-2.058;2022-11-20T01:51:04;3.60;;;3.30;;
41327;SDS011;27075;47.636;-2.058;2022-11-20T01:53:33;5.25;;;4.75;;
41327;SDS011;27075;47.636;-2.058;2022-11-20T01:56:01;4.82;;;3.92;;
41327;SDS011;27075;47.636;-2.058;2022-11-20T01:58:30;4.57;;;4.10;;
41327;SDS011;27075;47.636;-2.058;2022-11-20T02:00:57;6.88;;;3.65;;
41327;SDS011;27075;47.636;-2.058;2022-11-20T02:03:24;4.70;;;3.83;;
41327;SDS011;27075;47.636;-2.058;2022-11-20T02:05:53;3.97;;;3.50;;
41327;SDS011;27075;47.636;-2.058;2022-11-20T02:08:21;3.88;;;3.28;;
41327;SDS011;27075;47.636;-2.058;2022-11-20T02:10:47;5.78;;;4.70;;
41327;SDS011;27075;47.636;-2.058;2022-11-20T02:13:13;3.78;;;3.40;;
41327;SDS011;27075;47.636;-2.058;2022-11-20T02:15:58;4.70;;;3.72;;
41327;SDS011;27075;47.636;-2.058;2022-11-20T02:18:25;4.25;;;3.83;;
41327;SDS011;27075;47.636;-2.058;2022-11-20T02:21:00;4.82;;;4.38;;
41327;SDS011;27075;47.636;-2.058;2022-11-20T02:25:54;4.63;;;4.22;;
41327;SDS011;27075;47.636;-2.058;2022-11-20T02:28:21;3.78;;;3.38;;
41327;SDS011;27075;47.636;-2.058;2022-11-20T02:30:47;3.80;;;3.40;;
41327;SDS011;27075;47.636;-2.058;2022-11-20T02:33:13;4.05;;;3.72;;
41327;SDS011;27075;47.636;-2.058;2022-11-20T02:35:40;3.50;;;3.20;;
41327;SDS011;27075;47.636;-2.058;2022-11-20T02:38:07;3.53;;;3.22;;
41327;SDS011;27075;47.636;-2.058;2022-11-20T02:40:34;3.13;;;2.70;;
41327;SDS011;27075;47.636;-2.058;2022-11-20T02:43:00;3.35;;;2.90;;
41327;SDS011;27075;47.636;-2.058;2022-11-20T02:45:26;2.92;;;2.63;;
41327;SDS011;27075;47.636;-2.058;2022-11-20T02:47:52;7.07;;;3.60;;
41327;SDS011;27075;47.636;-2.058;2022-11-20T02:50:18;3.85;;;2.83;;
41327;SDS011;27075;47.636;-2.058;2022-11-20T02:52:44;3.33;;;3.03;;
41327;SDS011;27075;47.636;-2.058;2022-11-20T02:55:10;3.38;;;3.00;;
41327;SDS011;27075;47.636;-2.058;2022-11-20T02:57:36;3.33;;;3.03;;
41327;SDS011;27075;47.636;-2.058;2022-11-20T03:00:02;3.30;;;3.00;;
41327;SDS011;27075;47.636;-2.058;2022-11-20T03:02:29;4.47;;;2.88;;
41327;SDS011;27075;47.636;-2.058;2022-11-20T03:04:56;4.60;;;3.53;;
41327;SDS011;27075;47.636;-2.058;2022-11-20T03:07:22;6.80;;;4.03;;
41327;SDS011;27075;47.636;-2.058;2022-11-20T03:09:47;5.22;;;3.90;;
41327;SDS011;27075;47.636;-2.058;2022-11-20T03:12:14;3.53;;;3.22;;
41327;SDS011;27075;47.636;-2.058;2022-11-20T03:14:40;7.82;;;4.65;;
41327;SDS011;27075;47.636;-2.058;2022-11-20T03:17:06;3.30;;;3.00;;
41327;SDS011;27075;47.636;-2.058;2022-11-20T03:19:32;4.78;;;3.30;;
41327;SDS011;27075;47.636;-2.058;2022-11-20T03:21:59;4.15;;;3.20;;
41327;SDS011;27075;47.636;-2.058;2022-11-20T03:24:25;3.50;;;3.20;;
41327;SDS011;27075;47.636;-2.058;2022-11-20T03:26:51;3.85;;;3.38;;
41327;SDS011;27075;47.636;-2.058;2022-11-20T03:29:17;4.28;;;3.80;;
41327;SDS011;27075;47.636;-2.058;2022-11-20T03:34:10;3.55;;;3.20;;
41327;SDS011;27075;47.636;-2.058;2022-11-20T03:36:39;4.15;;;3.00;;
41327;SDS011;27075;47.636;-2.058;2022-11-20T03:39:05;3.92;;;2.70;;
41327;SDS011;27075;47.636;-2.058;2022-11-20T03:41:35;4.95;;;3.05;;
41327;SDS011;27075;47.636;-2.058;2022-11-20T03:44:01;5.63;;;3.20;;
41327;SDS011;27075;47.636;-2.058;2022-11-20T03:46:28;3.97;;;3.58;;
41327;SDS011;27075;47.636;-2.058;2022-11-20T03:48:54;5.97;;;3.30;;
41327;SDS011;27075;47.636;-2.058;2022-11-20T03:53:47;6.03;;;3.85;;
41327;SDS011;27075;47.636;-2.058;2022-11-20T03:56:14;3.88;;;3.20;;
41327;SDS011;27075;47.636;-2.058;2022-11-20T03:58:41;4.38;;;3.97;;
41327;SDS011;27075;47.636;-2.058;2022-11-20T04:03:37;3.20;;;3.00;;
41327;SDS011;27075;47.636;-2.058;2022-11-20T04:06:04;3.75;;;3.20;;
41327;SDS011;27075;47.636;-2.058;2022-11-20T04:08:31;3.53;;;3.22;;
41327;SDS011;27075;47.636;-2.058;2022-11-20T04:13:23;4.03;;;3.63;;
41327;SDS011;27075;47.636;-2.058;2022-11-20T04:15:49;3.08;;;2.88;;
41327;SDS011;27075;47.636;-2.058;2022-11-20T04:18:15;3.50;;;3.20;;
41327;SDS011;27075;47.636;-2.058;2022-11-20T04:20:41;3.00;;;2.80;;
41327;SDS011;27075;47.636;-2.058;2022-11-20T04:23:07;3.92;;;3.60;;
41327;SDS011;27075;47.636;-2.058;2022-11-20T04:25:33;3.67;;;3.38;;
41327;SDS011;27075;47.636;-2.058;2022-11-20T04:27:59;3.60;;;3.30;;
41327;SDS011;27075;47.636;-2.058;2022-11-20T04:30:25;3.20;;;3.00;;
41327;SDS011;27075;47.636;-2.058;2022-11-20T04:32:51;3.50;;;3.20;;
41327;SDS011;27075;47.636;-2.058;2022-11-20T04:35:17;3.35;;;3.05;;
41327;SDS011;27075;47.636;-2.058;2022-11-20T04:37:43;3.15;;;2.95;;
41327;SDS011;27075;47.636;-2.058;2022-11-20T04:40:09;3.42;;;3.13;;
41327;SDS011;27075;47.636;-2.058;2022-11-20T04:45:01;2.92;;;2.72;;
41327;SDS011;27075;47.636;-2.058;2022-11-20T04:47:27;3.20;;;2.92;;
41327;SDS011;27075;47.636;-2.058;2022-11-20T04:49:53;2.97;;;2.78;;
41327;SDS011;27075;47.636;-2.058;2022-11-20T04:52:19;2.95;;;2.75;;
41327;SDS011;27075;47.636;-2.058;2022-11-20T04:54:45;3.00;;;2.80;;
41327;SDS011;27075;47.636;-2.058;2022-11-20T04:57:12;2.80;;;2.60;;
41327;SDS011;27075;47.636;-2.058;2022-11-20T04:59:38;4.50;;;3.13;;
41327;SDS011;27075;47.636;-2.058;2022-11-20T05:02:04;2.90;;;2.70;;
41327;SDS011;27075;47.636;-2.058;2022-11-20T05:04:30;3.22;;;3.03;;
41327;SDS011;27075;47.636;-2.058;2022-11-20T05:06:56;2.88;;;2.67;;
41327;SDS011;27075;47.636;-2.058;2022-11-20T05:09:22;3.08;;;2.88;;
41327;SDS011;27075;47.636;-2.058;2022-11-20T05:11:48;3.40;;;3.03;;
41327;SDS011;27075;47.636;-2.058;2022-11-20T05:14:14;2.75;;;2.55;;
41327;SDS011;27075;47.636;-2.058;2022-11-20T05:16:40;3.30;;;3.08;;
41327;SDS011;27075;47.636;-2.058;2022-11-20T05:21:32;3.25;;;2.95;;
41327;SDS011;27075;47.636;-2.058;2022-11-20T05:23:58;3.22;;;3.03;;
41327;SDS011;27075;47.636;-2.058;2022-11-20T05:26:24;3.30;;;3.10;;
41327;SDS011;27075;47.636;-2.058;2022-11-20T05:28:50;2.83;;;2.63;;
41327;SDS011;27075;47.636;-2.058;2022-11-20T05:31:18;2.83;;;2.63;;
41327;SDS011;27075;47.636;-2.058;2022-11-20T05:33:44;2.80;;;2.60;;
41327;SDS011;27075;47.636;-2.058;2022-11-20T05:36:12;2.70;;;2.50;;
41327;SDS011;27075;47.636;-2.058;2022-11-20T05:38:38;2.92;;;2.70;;
41327;SDS011;27075;47.636;-2.058;2022-11-20T05:43:33;3.20;;;3.00;;
41327;SDS011;27075;47.636;-2.058;2022-11-20T05:46:00;3.22;;;2.92;;
41327;SDS011;27075;47.636;-2.058;2022-11-20T05:48:26;2.65;;;2.45;;
41327;SDS011;27075;47.636;-2.058;2022-11-20T05:50:52;2.63;;;2.42;;
41327;SDS011;27075;47.636;-2.058;2022-11-20T05:53:18;2.55;;;2.35;;
41327;SDS011;27075;47.636;-2.058;2022-11-20T05:55:44;2.85;;;2.65;;
41327;SDS011;27075;47.636;-2.058;2022-11-20T05:58:10;3.13;;;2.83;;
41327;SDS011;27075;47.636;-2.058;2022-11-20T06:03:02;2.40;;;2.20;;
41327;SDS011;27075;47.636;-2.058;2022-11-20T06:05:28;2.50;;;2.30;;
41327;SDS011;27075;47.636;-2.058;2022-11-20T06:07:54;2.88;;;2.67;;
41327;SDS011;27075;47.636;-2.058;2022-11-20T06:10:20;2.97;;;2.45;;
41327;SDS011;27075;47.636;-2.058;2022-11-20T06:12:46;2.50;;;2.30;;
41327;SDS011;27075;47.636;-2.058;2022-11-20T06:15:12;2.40;;;2.20;;
41327;SDS011;27075;47.636;-2.058;2022-11-20T06:17:38;2.40;;;2.20;;
41327;SDS011;27075;47.636;-2.058;2022-11-20T06:20:04;2.75;;;2.55;;
41327;SDS011;27075;47.636;-2.058;2022-11-20T06:22:31;2.30;;;2.10;;
41327;SDS011;27075;47.636;-2.058;2022-11-20T06:24:57;2.30;;;2.10;;
41327;SDS011;27075;47.636;-2.058;2022-11-20T06:27:23;2.40;;;2.20;;
41327;SDS011;27075;47.636;-2.058;2022-11-20T06:29:49;2.47;;;2.28;;
41327;SDS011;27075;47.636;-2.058;2022-11-20T06:32:15;3.00;;;2.70;;
41327;SDS011;27075;47.636;-2.058;2022-11-20T06:34:41;3.25;;;2.95;;
41327;SDS011;27075;47.636;-2.058;2022-11-20T06:37:07;2.85;;;2.58;;
41327;SDS011;27075;47.636;-2.058;2022-11-20T06:39:33;2.55;;;2.35;;
41327;SDS011;27075;47.636;-2.058;2022-11-20T06:41:59;3.33;;;2.30;;
41327;SDS011;27075;47.636;-2.058;2022-11-20T06:44:25;2.10;;;2.00;;
41327;SDS011;27075;47.636;-2.058;2022-11-20T06:46:51;2.40;;;2.20;;
41327;SDS011;27075;47.636;-2.058;2022-11-20T06:49:17;2.65;;;2.30;;
41327;SDS011;27075;47.636;-2.058;2022-11-20T06:51:43;2.10;;;2.00;;
41327;SDS011;27075;47.636;-2.058;2022-11-20T06:54:09;2.08;;;1.98;;
41327;SDS011;27075;47.636;-2.058;2022-11-20T06:56:35;2.10;;;2.00;;
41327;SDS011;27075;47.636;-2.058;2022-11-20T06:59:05;2.63;;;2.42;;
41327;SDS011;27075;47.636;-2.058;2022-11-20T07:01:31;2.15;;;2.00;;
41327;SDS011;27075;47.636;-2.058;2022-11-20T07:03:57;2.40;;;2.20;;
41327;SDS011;27075;47.636;-2.058;2022-11-20T07:06:23;2.00;;;1.90;;
41327;SDS011;27075;47.636;-2.058;2022-11-20T07:08:52;2.20;;;2.10;;
41327;SDS011;27075;47.636;-2.058;2022-11-20T07:11:18;2.92;;;2.17;;
41327;SDS011;27075;47.636;-2.058;2022-11-20T07:13:45;2.10;;;2.00;;
41327;SDS011;27075;47.636;-2.058;2022-11-20T07:16:11;2.35;;;2.15;;
41327;SDS011;27075;47.636;-2.058;2022-11-20T07:18:37;2.42;;;2.22;;
41327;SDS011;27075;47.636;-2.058;2022-11-20T07:21:07;2.22;;;2.03;;
41327;SDS011;27075;47.636;-2.058;2022-11-20T07:23:33;2.10;;;1.90;;
41327;SDS011;27075;47.636;-2.058;2022-11-20T07:26:09;2.10;;;2.00;;
41327;SDS011;27075;47.636;-2.058;2022-11-20T07:28:35;2.30;;;2.10;;
41327;SDS011;27075;47.636;-2.058;2022-11-20T07:31:02;2.38;;;2.17;;
41327;SDS011;27075;47.636;-2.058;2022-11-20T07:33:28;2.38;;;2.17;;
41327;SDS011;27075;47.636;-2.058;2022-11-20T07:35:54;2.40;;;2.20;;
41327;SDS011;27075;47.636;-2.058;2022-11-20T07:38:20;2.40;;;2.20;;
41327;SDS011;27075;47.636;-2.058;2022-11-20T07:40:46;4.35;;;2.35;;
41327;SDS011;27075;47.636;-2.058;2022-11-20T07:43:12;3.40;;;2.33;;
41327;SDS011;27075;47.636;-2.058;2022-11-20T07:45:38;2.83;;;2.55;;
41327;SDS011;27075;47.636;-2.058;2022-11-20T07:48:04;2.55;;;2.35;;
41327;SDS011;27075;47.636;-2.058;2022-11-20T07:50:30;2.70;;;2.50;;
41327;SDS011;27075;47.636;-2.058;2022-11-20T07:53:05;3.03;;;2.72;;
41327;SDS011;27075;47.636;-2.058;2022-11-20T07:55:31;2.63;;;2.42;;
41327;SDS011;27075;47.636;-2.058;2022-11-20T08:00:23;2.40;;;2.20;;
41327;SDS011;27075;47.636;-2.058;2022-11-20T08:02:50;2.30;;;2.10;;
41327;SDS011;27075;47.636;-2.058;2022-11-20T08:05:16;2.50;;;2.30;;
41327;SDS011;27075;47.636;-2.058;2022-11-20T08:07:42;3.20;;;2.90;;
41327;SDS011;27075;47.636;-2.058;2022-11-20T08:10:10;2.58;;;2.38;;
41327;SDS011;27075;47.636;-2.058;2022-11-20T08:12:42;2.53;;;2.33;;
41327;SDS011;27075;47.636;-2.058;2022-11-20T08:15:28;2.30;;;2.10;;
41327;SDS011;27075;47.636;-2.058;2022-11-20T08:17:59;2.50;;;2.30;;
41327;SDS011;27075;47.636;-2.058;2022-11-20T08:20:25;2.10;;;2.00;;
41327;SDS011;27075;47.636;-2.058;2022-11-20T08:22:51;2.05;;;1.95;;
41327;SDS011;27075;47.636;-2.058;2022-11-20T08:25:17;2.05;;;1.95;;
41327;SDS011;27075;47.636;-2.058;2022-11-20T08:27:43;2.30;;;2.03;;
41327;SDS011;27075;47.636;-2.058;2022-11-20T08:30:09;2.25;;;2.13;;
41327;SDS011;27075;47.636;-2.058;2022-11-20T08:32:35;2.60;;;2.10;;
41327;SDS011;27075;47.636;-2.058;2022-11-20T08:35:02;2.00;;;1.90;;
41327;SDS011;27075;47.636;-2.058;2022-11-20T08:39:54;2.00;;;1.90;;
41327;SDS011;27075;47.636;-2.058;2022-11-20T08:42:22;2.30;;;2.10;;
41327;SDS011;27075;47.636;-2.058;2022-11-20T08:44:48;3.65;;;2.38;;
41327;SDS011;27075;47.636;-2.058;2022-11-20T08:47:14;5.28;;;3.25;;
41327;SDS011;27075;47.636;-2.058;2022-11-20T08:49:40;3.97;;;2.65;;
41327;SDS011;27075;47.636;-2.058;2022-11-20T08:52:06;4.85;;;3.55;;
41327;SDS011;27075;47.636;-2.058;2022-11-20T08:54:32;3.28;;;2.60;;
41327;SDS011;27075;47.636;-2.058;2022-11-20T08:56:58;6.65;;;3.15;;
41327;SDS011;27075;47.636;-2.058;2022-11-20T08:59:24;5.78;;;3.28;;
41327;SDS011;27075;47.636;-2.058;2022-11-20T09:01:50;8.02;;;3.55;;
41327;SDS011;27075;47.636;-2.058;2022-11-20T09:04:16;3.38;;;3.08;;
41327;SDS011;27075;47.636;-2.058;2022-11-20T09:06:42;6.97;;;3.40;;
41327;SDS011;27075;47.636;-2.058;2022-11-20T09:09:08;4.75;;;3.10;;
41327;SDS011;27075;47.636;-2.058;2022-11-20T09:11:34;5.28;;;2.75;;
41327;SDS011;27075;47.636;-2.058;2022-11-20T09:14:01;4.88;;;2.70;;
41327;SDS011;27075;47.636;-2.058;2022-11-20T09:16:27;8.45;;;3.22;;
41327;SDS011;27075;47.636;-2.058;2022-11-20T09:18:53;4.40;;;2.85;;
41327;SDS011;27075;47.636;-2.058;2022-11-20T09:21:19;6.45;;;2.95;;
41327;SDS011;27075;47.636;-2.058;2022-11-20T09:23:47;3.55;;;2.70;;
41327;SDS011;27075;47.636;-2.058;2022-11-20T09:26:13;12.77;;;3.28;;
41327;SDS011;27075;47.636;-2.058;2022-11-20T09:28:40;13.35;;;4.47;;
41327;SDS011;27075;47.636;-2.058;2022-11-20T09:31:11;10.80;;;3.90;;
41327;SDS011;27075;47.636;-2.058;2022-11-20T09:33:41;10.43;;;3.40;;
41327;SDS011;27075;47.636;-2.058;2022-11-20T09:36:07;4.13;;;3.50;;
41327;SDS011;27075;47.636;-2.058;2022-11-20T09:38:34;9.27;;;4.18;;
41327;SDS011;27075;47.636;-2.058;2022-11-20T09:41:04;7.93;;;3.95;;
41327;SDS011;27075;47.636;-2.058;2022-11-20T09:43:32;22.20;;;5.78;;
41327;SDS011;27075;47.636;-2.058;2022-11-20T09:51:21;14.80;;;5.40;;
41327;SDS011;27075;47.636;-2.058;2022-11-20T09:56:18;8.60;;;4.93;;
41327;SDS011;27075;47.636;-2.058;2022-11-20T09:58:45;12.93;;;4.50;;
41327;SDS011;27075;47.636;-2.058;2022-11-20T10:06:09;20.02;;;5.38;;
41327;SDS011;27075;47.636;-2.058;2022-11-20T10:08:42;14.45;;;5.20;;
41327;SDS011;27075;47.636;-2.058;2022-11-20T10:11:15;12.32;;;4.30;;
41327;SDS011;27075;47.636;-2.058;2022-11-20T10:13:55;7.65;;;3.65;;
41327;SDS011;27075;47.636;-2.058;2022-11-20T10:21:49;10.43;;;5.63;;
41327;SDS011;27075;47.636;-2.058;2022-11-20T10:24:28;8.38;;;4.18;;
41327;SDS011;27075;47.636;-2.058;2022-11-20T10:29:29;14.23;;;4.88;;
41327;SDS011;27075;47.636;-2.058;2022-11-20T10:32:02;8.40;;;4.70;;
41327;SDS011;27075;47.636;-2.058;2022-11-20T10:34:38;18.52;;;5.57;;
41327;SDS011;27075;47.636;-2.058;2022-11-20T10:37:13;13.15;;;4.75;;
41327;SDS011;27075;47.636;-2.058;2022-11-20T10:42:10;13.82;;;5.25;;
41327;SDS011;27075;47.636;-2.058;2022-11-20T10:44:37;17.48;;;5.00;;
41327;SDS011;27075;47.636;-2.058;2022-11-20T10:47:24;11.32;;;3.85;;
41327;SDS011;27075;47.636;-2.058;2022-11-20T10:49:52;10.20;;;4.72;;
41327;SDS011;27075;47.636;-2.058;2022-11-20T10:57:42;16.40;;;5.10;;
41327;SDS011;27075;47.636;-2.058;2022-11-20T11:00:11;16.88;;;5.30;;
41327;SDS011;27075;47.636;-2.058;2022-11-20T11:07:49;12.52;;;5.18;;
41327;SDS011;27075;47.636;-2.058;2022-11-20T11:10:18;10.82;;;3.80;;
41327;SDS011;27075;47.636;-2.058;2022-11-20T11:12:45;13.98;;;4.80;;
41327;SDS011;27075;47.636;-2.058;2022-11-20T11:15:14;12.18;;;4.03;;
41327;SDS011;27075;47.636;-2.058;2022-11-20T11:17:46;11.07;;;4.47;;
41327;SDS011;27075;47.636;-2.058;2022-11-20T11:20:17;13.38;;;4.43;;
41327;SDS011;27075;47.636;-2.058;2022-11-20T11:22:50;9.70;;;4.30;;
41327;SDS011;27075;47.636;-2.058;2022-11-20T11:25:38;11.05;;;4.43;;
41327;SDS011;27075;47.636;-2.058;2022-11-20T11:28:04;10.45;;;4.57;;
41327;SDS011;27075;47.636;-2.058;2022-11-20T11:30:40;15.75;;;5.85;;
41327;SDS011;27075;47.636;-2.058;2022-11-20T11:35:53;7.65;;;3.85;;
41327;SDS011;27075;47.636;-2.058;2022-11-20T11:38:23;14.25;;;5.05;;
41327;SDS011;27075;47.636;-2.058;2022-11-20T11:40:54;9.80;;;3.83;;
41327;SDS011;27075;47.636;-2.058;2022-11-20T11:43:24;12.93;;;5.45;;
41327;SDS011;27075;47.636;-2.058;2022-11-20T11:49:27;12.02;;;4.30;;
41327;SDS011;27075;47.636;-2.058;2022-11-20T11:54:36;14.98;;;4.90;;
41327;SDS011;27075;47.636;-2.058;2022-11-20T11:57:05;12.13;;;4.15;;
41327;SDS011;27075;47.636;-2.058;2022-11-20T11:59:45;10.63;;;4.78;;
41327;SDS011;27075;47.636;-2.058;2022-11-20T12:07:43;10.23;;;4.32;;
41327;SDS011;27075;47.636;-2.058;2022-11-20T12:10:16;8.30;;;5.18;;
41327;SDS011;27075;47.636;-2.058;2022-11-20T12:12:45;14.63;;;5.38;;
41327;SDS011;27075;47.636;-2.058;2022-11-20T12:15:14;11.40;;;4.75;;
41327;SDS011;27075;47.636;-2.058;2022-11-20T12:17:41;12.18;;;3.88;;
41327;SDS011;27075;47.636;-2.058;2022-11-20T12:20:13;13.10;;;5.05;;
41327;SDS011;27075;47.636;-2.058;2022-11-20T12:22:48;13.80;;;4.72;;
41327;SDS011;27075;47.636;-2.058;2022-11-20T12:25:19;15.40;;;5.47;;
41327;SDS011;27075;47.636;-2.058;2022-11-20T12:30:32;10.35;;;4.90;;
41327;SDS011;27075;47.636;-2.058;2022-11-20T12:33:22;12.85;;;5.47;;
41327;SDS011;27075;47.636;-2.058;2022-11-20T12:39:00;8.05;;;4.22;;
41327;SDS011;27075;47.636;-2.058;2022-11-20T12:47:18;5.45;;;3.78;;
41327;SDS011;27075;47.636;-2.058;2022-11-20T12:54:59;9.40;;;3.95;;
41327;SDS011;27075;47.636;-2.058;2022-11-20T13:06:02;10.77;;;4.75;;
41327;SDS011;27075;47.636;-2.058;2022-11-20T13:08:35;9.35;;;4.40;;
41327;SDS011;27075;47.636;-2.058;2022-11-20T13:14:01;7.53;;;2.97;;
41327;SDS011;27075;47.636;-2.058;2022-11-20T13:19:01;7.32;;;4.93;;
41327;SDS011;27075;47.636;-2.058;2022-11-20T13:21:41;10.63;;;3.90;;
41327;SDS011;27075;47.636;-2.058;2022-11-20T13:24:19;12.27;;;4.32;;
41327;SDS011;27075;47.636;-2.058;2022-11-20T13:26:59;12.23;;;5.30;;
41327;SDS011;27075;47.636;-2.058;2022-11-20T13:29:25;14.88;;;4.38;;
41327;SDS011;27075;47.636;-2.058;2022-11-20T13:32:00;11.88;;;4.22;;
41327;SDS011;27075;47.636;-2.058;2022-11-20T13:34:27;15.75;;;4.53;;
41327;SDS011;27075;47.636;-2.058;2022-11-20T13:36:54;9.40;;;4.10;;
41327;SDS011;27075;47.636;-2.058;2022-11-20T13:39:28;9.30;;;4.63;;
41327;SDS011;27075;47.636;-2.058;2022-11-20T13:41:55;18.08;;;4.25;;
41327;SDS011;27075;47.636;-2.058;2022-11-20T13:49:47;13.35;;;4.15;;
41327;SDS011;27075;47.636;-2.058;2022-11-20T14:02:22;13.48;;;3.80;;
41327;SDS011;27075;47.636;-2.058;2022-11-20T14:04:50;11.48;;;5.20;;
41327;SDS011;27075;47.636;-2.058;2022-11-20T14:07:17;9.45;;;4.60;;
41327;SDS011;27075;47.636;-2.058;2022-11-20T14:09:51;15.02;;;4.85;;
41327;SDS011;27075;47.636;-2.058;2022-11-20T14:12:18;17.70;;;6.22;;
41327;SDS011;27075;47.636;-2.058;2022-11-20T14:14:49;8.45;;;4.07;;
41327;SDS011;27075;47.636;-2.058;2022-11-20T14:17:17;17.55;;;4.60;;
41327;SDS011;27075;47.636;-2.058;2022-11-20T14:19:43;17.52;;;4.70;;
41327;SDS011;27075;47.636;-2.058;2022-11-20T14:22:26;6.43;;;3.85;;
41327;SDS011;27075;47.636;-2.058;2022-11-20T14:27:38;20.00;;;10.63;;
41327;SDS011;27075;47.636;-2.058;2022-11-20T14:30:04;19.70;;;4.95;;
41327;SDS011;27075;47.636;-2.058;2022-11-20T14:34:58;8.25;;;6.47;;
41327;SDS011;27075;47.636;-2.058;2022-11-20T14:37:26;10.10;;;4.43;;
41327;SDS011;27075;47.636;-2.058;2022-11-20T14:39:55;14.07;;;8.93;;
41327;SDS011;27075;47.636;-2.058;2022-11-20T14:42:22;16.65;;;6.30;;
41327;SDS011;27075;47.636;-2.058;2022-11-20T14:44:49;14.52;;;5.43;;
41327;SDS011;27075;47.636;-2.058;2022-11-20T14:47:20;16.58;;;7.47;;
41327;SDS011;27075;47.636;-2.058;2022-11-20T14:49:47;15.27;;;8.77;;
41327;SDS011;27075;47.636;-2.058;2022-11-20T14:52:18;18.67;;;10.52;;
41327;SDS011;27075;47.636;-2.058;2022-11-20T14:54:45;21.08;;;10.52;;
41327;SDS011;27075;47.636;-2.058;2022-11-20T14:57:25;21.92;;;8.20;;
41327;SDS011;27075;47.636;-2.058;2022-11-20T15:00:02;11.15;;;6.25;;
41327;SDS011;27075;47.636;-2.058;2022-11-20T15:02:29;15.52;;;9.43;;
41327;SDS011;27075;47.636;-2.058;2022-11-20T15:04:59;21.38;;;8.80;;
41327;SDS011;27075;47.636;-2.058;2022-11-20T15:07:32;19.67;;;10.18;;
41327;SDS011;27075;47.636;-2.058;2022-11-20T15:10:02;9.70;;;6.50;;
41327;SDS011;27075;47.636;-2.058;2022-11-20T15:12:29;14.55;;;6.30;;
41327;SDS011;27075;47.636;-2.058;2022-11-20T15:14:55;13.48;;;9.15;;
41327;SDS011;27075;47.636;-2.058;2022-11-20T15:17:22;17.27;;;13.15;;
41327;SDS011;27075;47.636;-2.058;2022-11-20T15:22:14;18.58;;;14.65;;
41327;SDS011;27075;47.636;-2.058;2022-11-20T15:24:41;33.72;;;18.02;;
41327;SDS011;27075;47.636;-2.058;2022-11-20T15:27:07;24.73;;;14.82;;
41327;SDS011;27075;47.636;-2.058;2022-11-20T15:29:33;21.95;;;13.25;;
41327;SDS011;27075;47.636;-2.058;2022-11-20T15:31:59;20.15;;;11.80;;
41327;SDS011;27075;47.636;-2.058;2022-11-20T15:34:26;15.18;;;11.70;;
41327;SDS011;27075;47.636;-2.058;2022-11-20T15:36:52;18.90;;;11.30;;
41327;SDS011;27075;47.636;-2.058;2022-11-20T15:39:19;17.00;;;12.30;;
41327;SDS011;27075;47.636;-2.058;2022-11-20T15:44:11;11.20;;;5.63;;
41327;SDS011;27075;47.636;-2.058;2022-11-20T15:46:38;12.32;;;5.07;;
41327;SDS011;27075;47.636;-2.058;2022-11-20T15:49:06;11.57;;;4.43;;
41327;SDS011;27075;47.636;-2.058;2022-11-20T15:51:37;11.35;;;4.05;;
41327;SDS011;27075;47.636;-2.058;2022-11-20T15:54:11;9.07;;;4.07;;
41327;SDS011;27075;47.636;-2.058;2022-11-20T15:56:37;7.95;;;4.60;;
41327;SDS011;27075;47.636;-2.058;2022-11-20T15:59:03;10.45;;;4.47;;
41327;SDS011;27075;47.636;-2.058;2022-11-20T16:01:29;7.00;;;4.20;;
41327;SDS011;27075;47.636;-2.058;2022-11-20T16:06:21;9.38;;;4.55;;
41327;SDS011;27075;47.636;-2.058;2022-11-20T16:08:47;17.75;;;5.00;;
41327;SDS011;27075;47.636;-2.058;2022-11-20T16:11:14;8.18;;;3.53;;
41327;SDS011;27075;47.636;-2.058;2022-11-20T16:13:40;11.25;;;4.88;;
41327;SDS011;27075;47.636;-2.058;2022-11-20T16:16:25;11.32;;;5.25;;
41327;SDS011;27075;47.636;-2.058;2022-11-20T16:18:53;9.65;;;4.75;;
41327;SDS011;27075;47.636;-2.058;2022-11-20T16:23:45;11.95;;;6.10;;
41327;SDS011;27075;47.636;-2.058;2022-11-20T16:26:12;15.95;;;7.13;;
41327;SDS011;27075;47.636;-2.058;2022-11-20T16:28:39;12.73;;;6.88;;
41327;SDS011;27075;47.636;-2.058;2022-11-20T16:31:09;12.85;;;8.05;;
41327;SDS011;27075;47.636;-2.058;2022-11-20T16:33:35;15.02;;;7.35;;
41327;SDS011;27075;47.636;-2.058;2022-11-20T16:38:34;7.80;;;6.13;;
41327;SDS011;27075;47.636;-2.058;2022-11-20T16:41:01;11.15;;;5.88;;
41327;SDS011;27075;47.636;-2.058;2022-11-20T16:43:27;13.23;;;6.13;;
41327;SDS011;27075;47.636;-2.058;2022-11-20T16:45:53;12.45;;;5.35;;
41327;SDS011;27075;47.636;-2.058;2022-11-20T16:48:19;8.68;;;4.72;;
41327;SDS011;27075;47.636;-2.058;2022-11-20T16:50:49;7.70;;;4.60;;
41327;SDS011;27075;47.636;-2.058;2022-11-20T16:53:16;9.65;;;4.97;;
41327;SDS011;27075;47.636;-2.058;2022-11-20T16:55:42;10.68;;;4.28;;
41327;SDS011;27075;47.636;-2.058;2022-11-20T16:58:08;11.82;;;5.03;;
41327;SDS011;27075;47.636;-2.058;2022-11-20T17:00:35;8.20;;;4.80;;
41327;SDS011;27075;47.636;-2.058;2022-11-20T17:03:02;11.20;;;5.78;;
41327;SDS011;27075;47.636;-2.058;2022-11-20T17:05:28;17.00;;;8.07;;
41327;SDS011;27075;47.636;-2.058;2022-11-20T17:07:54;13.70;;;6.97;;
41327;SDS011;27075;47.636;-2.058;2022-11-20T17:10:20;14.65;;;6.18;;